sensor_id;sensor_type;location;lat;lon;timestamp;pressure;altitude;pressure_sealevel;temperature;humidity
5703;BME280;2876;51.738;10.050;2023-04-24T00:02:46;97883.84;;;12.89;83.72
5703;BME280;2876;51.738;10.050;2023-04-24T00:08:49;97882.22;;;12.88;83.77
5703;BME280;2876;51.738;10.050;2023-04-24T00:14:51;97885.34;;;12.80;83.61
5703;BME280;2876;51.738;10.050;2023-04-24T00:20:53;97890.50;;;12.82;83.70
5703;BME280;2876;51.738;10.050;2023-04-24T00:26:55;97884.44;;;12.91;83.24
5703;BME280;2876;51.738;10.050;2023-04-24T00:32:57;97885.44;;;12.85;83.46
5703;BME280;2876;51.738;10.050;2023-04-24T00:38:59;97887.97;;;12.75;83.36
5703;BME280;2876;51.738;10.050;2023-04-24T00:45:02;97893.03;;;12.72;83.62
5703;BME280;2876;51.738;10.050;2023-04-24T00:51:05;97885.56;;;12.57;83.91
5703;BME280;2876;51.738;10.050;2023-04-24T00:57:07;97886.31;;;12.52;84.33
5703;BME280;2876;51.738;10.050;2023-04-24T01:03:09;97882.81;;;12.52;84.39
5703;BME280;2876;51.738;10.050;2023-04-24T01:09:13;97884.69;;;12.51;84.39
5703;BME280;2876;51.738;10.050;2023-04-24T01:15:16;97878.66;;;12.44;84.32
5703;BME280;2876;51.738;10.050;2023-04-24T01:21:18;97866.59;;;12.08;85.21
5703;BME280;2876;51.738;10.050;2023-04-24T01:27:22;97873.09;;;12.29;84.11
5703;BME280;2876;51.738;10.050;2023-04-24T01:33:24;97863.56;;;12.21;84.28
5703;BME280;2876;51.738;10.050;2023-04-24T01:39:27;97848.63;;;11.91;84.18
5703;BME280;2876;51.738;10.050;2023-04-24T01:45:30;97861.38;;;11.84;83.69
5703;BME280;2876;51.738;10.050;2023-04-24T01:51:32;97856.28;;;11.71;83.97
5703;BME280;2876;51.738;10.050;2023-04-24T01:57:34;97865.84;;;11.79;83.33
5703;BME280;2876;51.738;10.050;2023-04-24T02:03:36;97865.66;;;11.68;83.75
5703;BME280;2876;51.738;10.050;2023-04-24T02:09:38;97864.84;;;11.68;83.74
5703;BME280;2876;51.738;10.050;2023-04-24T02:15:41;97866.03;;;11.43;84.68
5703;BME280;2876;51.738;10.050;2023-04-24T02:21:43;97879.31;;;11.22;85.32
5703;BME280;2876;51.738;10.050;2023-04-24T02:27:45;97873.66;;;11.06;85.89
5703;BME280;2876;51.738;10.050;2023-04-24T02:33:46;97861.44;;;10.99;86.83
5703;BME280;2876;51.738;10.050;2023-04-24T02:39:49;97862.00;;;10.72;87.02
5703;BME280;2876;51.738;10.050;2023-04-24T02:45:51;97863.91;;;10.36;88.25
5703;BME280;2876;51.738;10.050;2023-04-24T02:51:53;97862.25;;;10.00;90.13
5703;BME280;2876;51.738;10.050;2023-04-24T02:57:54;97863.41;;;10.16;92.02
5703;BME280;2876;51.738;10.050;2023-04-24T03:03:56;97857.13;;;10.10;93.15
5703;BME280;2876;51.738;10.050;2023-04-24T03:09:59;97842.81;;;10.28;93.75
5703;BME280;2876;51.738;10.050;2023-04-24T03:16:01;97832.56;;;10.25;94.07
5703;BME280;2876;51.738;10.050;2023-04-24T03:22:03;97827.66;;;10.22;93.77
5703;BME280;2876;51.738;10.050;2023-04-24T03:28:05;97822.44;;;10.27;93.61
5703;BME280;2876;51.738;10.050;2023-04-24T03:34:07;97820.31;;;10.41;92.98
5703;BME280;2876;51.738;10.050;2023-04-24T03:40:09;97806.13;;;10.40;93.92
5703;BME280;2876;51.738;10.050;2023-04-24T03:46:11;97807.94;;;10.52;93.41
5703;BME280;2876;51.738;10.050;2023-04-24T03:52:13;97805.34;;;10.57;93.90
5703;BME280;2876;51.738;10.050;2023-04-24T03:58:15;97804.53;;;10.68;93.34
5703;BME280;2876;51.738;10.050;2023-04-24T04:04:17;97811.47;;;10.81;93.34
5703;BME280;2876;51.738;10.050;2023-04-24T04:10:19;97807.34;;;10.90;93.14
5703;BME280;2876;51.738;10.050;2023-04-24T04:16:22;97805.38;;;11.14;92.43
5703;BME280;2876;51.738;10.050;2023-04-24T04:22:24;97815.16;;;11.20;92.67
5703;BME280;2876;51.738;10.050;2023-04-24T04:28:26;97818.94;;;11.36;92.25
5703;BME280;2876;51.738;10.050;2023-04-24T04:34:28;97820.16;;;11.45;91.32
5703;BME280;2876;51.738;10.050;2023-04-24T04:40:31;97820.59;;;11.54;90.67
5703;BME280;2876;51.738;10.050;2023-04-24T04:46:33;97828.22;;;11.62;90.94
5703;BME280;2876;51.738;10.050;2023-04-24T04:52:35;97821.72;;;11.75;90.00
5703;BME280;2876;51.738;10.050;2023-04-24T04:58:37;97834.00;;;11.71;90.50
5703;BME280;2876;51.738;10.050;2023-04-24T05:04:39;97839.97;;;11.73;90.92
5703;BME280;2876;51.738;10.050;2023-04-24T05:10:41;97839.34;;;11.82;90.93
5703;BME280;2876;51.738;10.050;2023-04-24T05:16:43;97829.31;;;11.95;90.68
5703;BME280;2876;51.738;10.050;2023-04-24T05:22:46;97833.88;;;12.50;88.43
5703;BME280;2876;51.738;10.050;2023-04-24T05:28:47;97843.50;;;12.29;88.64
5703;BME280;2876;51.738;10.050;2023-04-24T05:34:49;97835.22;;;12.52;87.25
5703;BME280;2876;51.738;10.050;2023-04-24T05:40:51;97844.59;;;12.72;86.84
5703;BME280;2876;51.738;10.050;2023-04-24T05:46:53;97848.25;;;12.82;84.53
5703;BME280;2876;51.738;10.050;2023-04-24T05:52:57;97846.44;;;12.88;84.04
5703;BME280;2876;51.738;10.050;2023-04-24T05:59:03;97855.19;;;12.78;84.55
5703;BME280;2876;51.738;10.050;2023-04-24T06:05:06;97861.94;;;13.03;82.88
5703;BME280;2876;51.738;10.050;2023-04-24T06:11:08;97858.75;;;12.84;84.09
5703;BME280;2876;51.738;10.050;2023-04-24T06:17:10;97858.00;;;13.10;83.80
5703;BME280;2876;51.738;10.050;2023-04-24T06:23:12;97863.75;;;13.19;84.18
5703;BME280;2876;51.738;10.050;2023-04-24T06:29:13;97866.06;;;13.59;82.33
5703;BME280;2876;51.738;10.050;2023-04-24T06:35:15;97861.91;;;13.47;82.63
5703;BME280;2876;51.738;10.050;2023-04-24T06:41:17;97897.06;;;13.62;81.51
5703;BME280;2876;51.738;10.050;2023-04-24T06:47:20;97912.38;;;11.67;88.87
5703;BME280;2876;51.738;10.050;2023-04-24T06:53:22;97913.28;;;11.16;90.90
5703;BME280;2876;51.738;10.050;2023-04-24T06:59:24;97907.38;;;11.02;93.12
5703;BME280;2876;51.738;10.050;2023-04-24T07:05:26;97915.22;;;11.32;92.83
5703;BME280;2876;51.738;10.050;2023-04-24T07:11:29;97920.03;;;11.59;91.15
5703;BME280;2876;51.738;10.050;2023-04-24T07:17:32;97920.31;;;12.08;84.84
5703;BME280;2876;51.738;10.050;2023-04-24T07:23:34;97928.66;;;12.40;84.11
5703;BME280;2876;51.738;10.050;2023-04-24T07:29:36;97921.66;;;12.22;83.43
5703;BME280;2876;51.738;10.050;2023-04-24T07:35:38;97906.09;;;13.24;79.05
5703;BME280;2876;51.738;10.050;2023-04-24T07:41:40;97934.63;;;13.47;76.48
5703;BME280;2876;51.738;10.050;2023-04-24T07:47:43;97931.84;;;13.90;70.91
5703;BME280;2876;51.738;10.050;2023-04-24T07:53:47;97926.75;;;13.94;69.77
5703;BME280;2876;51.738;10.050;2023-04-24T07:59:49;97934.78;;;13.89;66.45
5703;BME280;2876;51.738;10.050;2023-04-24T08:05:51;97927.38;;;13.47;64.85
5703;BME280;2876;51.738;10.050;2023-04-24T08:11:53;97954.50;;;13.40;66.68
5703;BME280;2876;51.738;10.050;2023-04-24T08:17:55;97962.63;;;13.94;66.64
5703;BME280;2876;51.738;10.050;2023-04-24T08:23:59;97970.91;;;14.20;62.69
5703;BME280;2876;51.738;10.050;2023-04-24T08:30:03;97977.63;;;12.98;61.98
5703;BME280;2876;51.738;10.050;2023-04-24T08:36:07;97985.94;;;12.96;64.27
5703;BME280;2876;51.738;10.050;2023-04-24T08:42:09;97982.03;;;13.04;63.97
5703;BME280;2876;51.738;10.050;2023-04-24T08:48:13;97970.59;;;12.97;62.51
5703;BME280;2876;51.738;10.050;2023-04-24T08:54:33;97972.91;;;13.76;63.22
5703;BME280;2876;51.738;10.050;2023-04-24T09:00:35;97983.72;;;14.35;59.66
5703;BME280;2876;51.738;10.050;2023-04-24T09:06:40;97978.69;;;13.62;61.47
5703;BME280;2876;51.738;10.050;2023-04-24T09:12:43;98004.19;;;12.94;62.42
5703;BME280;2876;51.738;10.050;2023-04-24T09:18:45;97991.94;;;12.81;63.72
5703;BME280;2876;51.738;10.050;2023-04-24T09:24:47;97986.75;;;13.35;60.61
5703;BME280;2876;51.738;10.050;2023-04-24T09:31:19;98014.56;;;13.63;63.06
5703;BME280;2876;51.738;10.050;2023-04-24T09:37:30;98013.81;;;13.24;61.06
5703;BME280;2876;51.738;10.050;2023-04-24T09:43:32;98003.91;;;13.29;61.96
5703;BME280;2876;51.738;10.050;2023-04-24T09:49:35;98013.94;;;12.95;61.55
5703;BME280;2876;51.738;10.050;2023-04-24T09:55:42;98010.59;;;12.71;64.00
5703;BME280;2876;51.738;10.050;2023-04-24T10:01:47;98015.28;;;12.59;63.81
5703;BME280;2876;51.738;10.050;2023-04-24T10:07:51;98013.31;;;12.54;64.91
5703;BME280;2876;51.738;10.050;2023-04-24T10:13:53;98018.19;;;12.74;64.28
5703;BME280;2876;51.738;10.050;2023-04-24T10:19:58;98014.94;;;13.11;63.63
5703;BME280;2876;51.738;10.050;2023-04-24T10:26:01;98008.22;;;13.52;62.10
5703;BME280;2876;51.738;10.050;2023-04-24T10:32:07;98012.41;;;13.87;60.04
5703;BME280;2876;51.738;10.050;2023-04-24T10:38:12;98007.31;;;14.17;60.43
5703;BME280;2876;51.738;10.050;2023-04-24T10:44:16;97992.53;;;14.25;59.74
5703;BME280;2876;51.738;10.050;2023-04-24T10:50:18;97997.34;;;14.18;63.32
5703;BME280;2876;51.738;10.050;2023-04-24T10:56:21;98005.09;;;14.09;63.85
5703;BME280;2876;51.738;10.050;2023-04-24T11:02:39;98015.06;;;14.09;61.74
5703;BME280;2876;51.738;10.050;2023-04-24T11:08:46;98000.00;;;14.77;59.62
5703;BME280;2876;51.738;10.050;2023-04-24T11:21:16;97998.91;;;14.14;60.67
5703;BME280;2876;51.738;10.050;2023-04-24T11:27:20;98012.03;;;13.78;63.32
5703;BME280;2876;51.738;10.050;2023-04-24T11:33:23;98012.56;;;14.34;61.91
5703;BME280;2876;51.738;10.050;2023-04-24T11:39:25;97999.59;;;14.95;60.14
5703;BME280;2876;51.738;10.050;2023-04-24T11:45:30;98020.22;;;14.75;58.81
5703;BME280;2876;51.738;10.050;2023-04-24T11:51:32;98013.72;;;13.84;61.95
5703;BME280;2876;51.738;10.050;2023-04-24T11:57:59;98049.72;;;12.95;67.03
5703;BME280;2876;51.738;10.050;2023-04-24T12:04:01;98053.88;;;12.36;74.71
5703;BME280;2876;51.738;10.050;2023-04-24T12:10:05;98066.69;;;12.17;82.01
5703;BME280;2876;51.738;10.050;2023-04-24T12:16:07;98060.38;;;13.63;78.22
5703;BME280;2876;51.738;10.050;2023-04-24T12:22:09;98068.88;;;15.64;68.56
5703;BME280;2876;51.738;10.050;2023-04-24T12:28:12;98073.78;;;14.07;71.08
5703;BME280;2876;51.738;10.050;2023-04-24T12:34:19;98099.19;;;12.15;77.83
5703;BME280;2876;51.738;10.050;2023-04-24T12:40:25;98100.00;;;10.47;83.51
5703;BME280;2876;51.738;10.050;2023-04-24T12:46:27;98114.91;;;9.94;83.53
5703;BME280;2876;51.738;10.050;2023-04-24T12:52:30;98132.31;;;10.03;84.37
5703;BME280;2876;51.738;10.050;2023-04-24T12:58:32;98135.91;;;9.97;82.26
5703;BME280;2876;51.738;10.050;2023-04-24T13:04:34;98154.06;;;9.95;83.13
5703;BME280;2876;51.738;10.050;2023-04-24T13:10:36;98151.44;;;10.07;82.00
5703;BME280;2876;51.738;10.050;2023-04-24T13:16:38;98160.22;;;10.14;82.21
5703;BME280;2876;51.738;10.050;2023-04-24T13:22:40;98173.56;;;10.51;81.85
5703;BME280;2876;51.738;10.050;2023-04-24T13:28:41;98167.34;;;10.69;79.99
5703;BME280;2876;51.738;10.050;2023-04-24T13:34:43;98178.44;;;10.72;82.22
5703;BME280;2876;51.738;10.050;2023-04-24T13:40:45;98187.72;;;10.21;84.16
5703;BME280;2876;51.738;10.050;2023-04-24T13:46:50;98202.72;;;9.74;89.67
5703;BME280;2876;51.738;10.050;2023-04-24T13:52:53;98219.19;;;9.52;92.67
5703;BME280;2876;51.738;10.050;2023-04-24T13:58:56;98232.06;;;9.62;88.33
5703;BME280;2876;51.738;10.050;2023-04-24T14:04:58;98233.09;;;9.61;85.39
5703;BME280;2876;51.738;10.050;2023-04-24T14:11:00;98236.16;;;9.64;84.54
5703;BME280;2876;51.738;10.050;2023-04-24T14:17:05;98246.44;;;9.68;84.23
5703;BME280;2876;51.738;10.050;2023-04-24T14:23:07;98251.63;;;9.62;84.15
5703;BME280;2876;51.738;10.050;2023-04-24T14:29:09;98253.16;;;9.52;85.23
5703;BME280;2876;51.738;10.050;2023-04-24T14:35:16;98251.09;;;9.54;85.72
5703;BME280;2876;51.738;10.050;2023-04-24T14:41:18;98266.97;;;9.49;86.60
5703;BME280;2876;51.738;10.050;2023-04-24T14:47:20;98268.88;;;9.66;85.91
5703;BME280;2876;51.738;10.050;2023-04-24T14:53:23;98280.28;;;9.80;85.14
5703;BME280;2876;51.738;10.050;2023-04-24T14:59:25;98277.06;;;10.15;81.13
5703;BME280;2876;51.738;10.050;2023-04-24T15:05:27;98272.59;;;10.09;80.02
5703;BME280;2876;51.738;10.050;2023-04-24T15:11:29;98291.22;;;10.04;81.44
5703;BME280;2876;51.738;10.050;2023-04-24T15:17:31;98300.34;;;9.96;81.55
5703;BME280;2876;51.738;10.050;2023-04-24T15:23:33;98307.72;;;9.76;82.09
5703;BME280;2876;51.738;10.050;2023-04-24T15:29:35;98295.19;;;9.95;80.55
5703;BME280;2876;51.738;10.050;2023-04-24T15:35:37;98317.53;;;10.07;81.31
5703;BME280;2876;51.738;10.050;2023-04-24T15:41:39;98318.00;;;10.22;82.09
5703;BME280;2876;51.738;10.050;2023-04-24T15:47:41;98323.81;;;10.19;81.73
5703;BME280;2876;51.738;10.050;2023-04-24T15:53:43;98324.69;;;10.13;82.15
5703;BME280;2876;51.738;10.050;2023-04-24T15:59:48;98320.88;;;10.27;82.20
5703;BME280;2876;51.738;10.050;2023-04-24T16:05:52;98331.44;;;11.37;78.91
5703;BME280;2876;51.738;10.050;2023-04-24T16:11:54;98334.66;;;11.28;76.19
5703;BME280;2876;51.738;10.050;2023-04-24T16:17:56;98326.66;;;11.51;74.89
5703;BME280;2876;51.738;10.050;2023-04-24T16:23:59;98340.00;;;10.68;75.90
5703;BME280;2876;51.738;10.050;2023-04-24T16:30:01;98341.28;;;10.47;74.97
5703;BME280;2876;51.738;10.050;2023-04-24T16:36:03;98335.47;;;10.31;75.17
5703;BME280;2876;51.738;10.050;2023-04-24T16:42:08;98356.22;;;10.11;75.80
5703;BME280;2876;51.738;10.050;2023-04-24T16:48:10;98370.69;;;10.10;76.01
5703;BME280;2876;51.738;10.050;2023-04-24T16:54:12;98379.06;;;9.95;77.01
5703;BME280;2876;51.738;10.050;2023-04-24T17:00:14;98382.94;;;9.99;77.20
5703;BME280;2876;51.738;10.050;2023-04-24T17:06:17;98387.13;;;10.13;76.39
5703;BME280;2876;51.738;10.050;2023-04-24T17:12:19;98385.88;;;9.91;75.33
5703;BME280;2876;51.738;10.050;2023-04-24T17:18:21;98390.38;;;9.97;76.02
5703;BME280;2876;51.738;10.050;2023-04-24T17:24:23;98387.28;;;9.94;76.82
5703;BME280;2876;51.738;10.050;2023-04-24T17:30:25;98390.69;;;10.07;76.22
5703;BME280;2876;51.738;10.050;2023-04-24T17:36:27;98390.59;;;9.96;75.33
5703;BME280;2876;51.738;10.050;2023-04-24T17:42:29;98394.59;;;9.86;75.69
5703;BME280;2876;51.738;10.050;2023-04-24T17:48:31;98389.06;;;9.81;76.39
5703;BME280;2876;51.738;10.050;2023-04-24T17:54:33;98389.25;;;9.80;75.66
5703;BME280;2876;51.738;10.050;2023-04-24T18:00:35;98397.25;;;10.11;75.23
5703;BME280;2876;51.738;10.050;2023-04-24T18:06:38;98401.97;;;10.59;71.35
5703;BME280;2876;51.738;10.050;2023-04-24T18:12:40;98398.69;;;10.14;74.14
5703;BME280;2876;51.738;10.050;2023-04-24T18:18:42;98404.81;;;9.96;75.70
5703;BME280;2876;51.738;10.050;2023-04-24T18:24:44;98428.44;;;9.74;77.63
5703;BME280;2876;51.738;10.050;2023-04-24T18:30:46;98426.56;;;9.50;79.10
5703;BME280;2876;51.738;10.050;2023-04-24T18:36:48;98451.06;;;9.40;80.26
5703;BME280;2876;51.738;10.050;2023-04-24T18:42:50;98448.63;;;9.38;79.97
5703;BME280;2876;51.738;10.050;2023-04-24T18:48:52;98447.22;;;9.36;80.52
5703;BME280;2876;51.738;10.050;2023-04-24T18:54:54;98455.31;;;9.16;82.97
5703;BME280;2876;51.738;10.050;2023-04-24T19:00:56;98461.88;;;9.20;83.29
5703;BME280;2876;51.738;10.050;2023-04-24T19:06:58;98463.34;;;9.16;84.07
5703;BME280;2876;51.738;10.050;2023-04-24T19:13:00;98469.44;;;9.30;83.11
5703;BME280;2876;51.738;10.050;2023-04-24T19:19:02;98485.91;;;9.33;82.28
5703;BME280;2876;51.738;10.050;2023-04-24T19:25:07;98492.53;;;9.24;81.75
5703;BME280;2876;51.738;10.050;2023-04-24T19:31:09;98492.75;;;9.16;82.70
5703;BME280;2876;51.738;10.050;2023-04-24T19:37:11;98500.19;;;9.14;82.02
5703;BME280;2876;51.738;10.050;2023-04-24T19:43:13;98494.81;;;9.21;82.34
5703;BME280;2876;51.738;10.050;2023-04-24T19:49:15;98487.47;;;8.96;83.34
5703;BME280;2876;51.738;10.050;2023-04-24T19:55:18;98478.16;;;9.12;82.15
5703;BME280;2876;51.738;10.050;2023-04-24T20:01:19;98485.59;;;9.03;82.34
5703;BME280;2876;51.738;10.050;2023-04-24T20:07:22;98494.31;;;8.79;82.43
5703;BME280;2876;51.738;10.050;2023-04-24T20:13:24;98488.75;;;8.80;82.83
5703;BME280;2876;51.738;10.050;2023-04-24T20:19:28;98496.16;;;8.72;82.99
5703;BME280;2876;51.738;10.050;2023-04-24T20:25:30;98487.72;;;8.81;82.00
5703;BME280;2876;51.738;10.050;2023-04-24T20:31:33;98490.00;;;8.71;82.68
5703;BME280;2876;51.738;10.050;2023-04-24T20:37:35;98489.59;;;8.61;83.10
5703;BME280;2876;51.738;10.050;2023-04-24T20:43:38;98487.31;;;8.71;83.25
5703;BME280;2876;51.738;10.050;2023-04-24T20:49:40;98492.47;;;8.66;82.96
5703;BME280;2876;51.738;10.050;2023-04-24T20:55:42;98474.16;;;8.83;82.76
5703;BME280;2876;51.738;10.050;2023-04-24T21:01:44;98481.75;;;8.86;83.45
5703;BME280;2876;51.738;10.050;2023-04-24T21:07:46;98487.31;;;8.78;83.23
5703;BME280;2876;51.738;10.050;2023-04-24T21:13:48;98481.56;;;8.74;83.22
5703;BME280;2876;51.738;10.050;2023-04-24T21:19:50;98481.38;;;8.69;83.76
5703;BME280;2876;51.738;10.050;2023-04-24T21:25:52;98471.28;;;8.78;82.72
5703;BME280;2876;51.738;10.050;2023-04-24T21:31:54;98480.38;;;8.63;82.90
5703;BME280;2876;51.738;10.050;2023-04-24T21:37:56;98473.81;;;8.46;83.96
5703;BME280;2876;51.738;10.050;2023-04-24T21:43:58;98481.00;;;8.46;83.63
5703;BME280;2876;51.738;10.050;2023-04-24T21:50:00;98486.09;;;8.34;83.87
5703;BME280;2876;51.738;10.050;2023-04-24T21:56:02;98480.97;;;8.39;83.72
5703;BME280;2876;51.738;10.050;2023-04-24T22:02:04;98472.56;;;8.09;84.00
5703;BME280;2876;51.738;10.050;2023-04-24T22:08:07;98475.00;;;8.04;82.95
5703;BME280;2876;51.738;10.050;2023-04-24T22:14:09;98473.34;;;8.03;83.21
5703;BME280;2876;51.738;10.050;2023-04-24T22:20:11;98464.31;;;8.04;83.24
5703;BME280;2876;51.738;10.050;2023-04-24T22:26:14;98468.41;;;7.86;83.08
5703;BME280;2876;51.738;10.050;2023-04-24T22:32:16;98466.75;;;7.85;82.56
5703;BME280;2876;51.738;10.050;2023-04-24T22:38:18;98468.78;;;7.70;82.35
5703;BME280;2876;51.738;10.050;2023-04-24T22:44:20;98468.16;;;7.61;82.70
5703;BME280;2876;51.738;10.050;2023-04-24T22:50:22;98470.78;;;7.42;83.34
5703;BME280;2876;51.738;10.050;2023-04-24T22:56:26;98467.50;;;7.53;81.56
5703;BME280;2876;51.738;10.050;2023-04-24T23:02:28;98467.28;;;7.41;82.41
5703;BME280;2876;51.738;10.050;2023-04-24T23:08:30;98468.50;;;7.32;82.68
5703;BME280;2876;51.738;10.050;2023-04-24T23:14:32;98465.63;;;7.40;82.43
5703;BME280;2876;51.738;10.050;2023-04-24T23:20:35;98464.09;;;7.11;83.36
5703;BME280;2876;51.738;10.050;2023-04-24T23:26:37;98447.06;;;7.05;82.92
5703;BME280;2876;51.738;10.050;2023-04-24T23:32:39;98444.09;;;6.87;84.24
5703;BME280;2876;51.738;10.050;2023-04-24T23:38:41;98443.84;;;6.75;84.71
5703;BME280;2876;51.738;10.050;2023-04-24T23:44:51;98449.28;;;6.60;85.66
5703;BME280;2876;51.738;10.050;2023-04-24T23:50:53;98442.78;;;6.70;85.47
5703;BME280;2876;51.738;10.050;2023-04-24T23:56:55;98442.19;;;6.40;86.22
